Time;durP1;ratioP1;P1;durP2;ratioP2;P2;SDS_P1;SDS_P2;PMS_P1;PMS_P2;Temp;Humidity;BMP_temperature;BMP_pressure;BME280_temperature;BME280_humidity;BME280_pressure;Samples;Min_cycle;Max_cycle;Signal;HPM_P1;HPM_P2
2023/05/06 00:02:12;;;;;;;19.00;12.25;;;410.20;2355.20;;;;;;5025983;28;20026;-73
2023/05/06 00:04:38;;;;;;;19.73;11.35;;;410.10;2355.20;;;;;;5025764;28;20037;-73
2023/05/06 00:07:04;;;;;;;15.02;10.63;;;409.90;2355.20;;;;;;5026361;28;20024;-73
2023/05/06 00:09:30;;;;;;;17.17;11.23;;;409.80;2355.20;;;;;;5025221;28;20116;-73
2023/05/06 00:11:55;;;;;;;16.55;11.48;;;409.90;2355.20;;;;;;5031080;28;20026;-73
2023/05/06 00:14:21;;;;;;;15.95;11.85;;;409.80;2355.20;;;;;;5022525;28;20105;-73
2023/05/06 00:16:47;;;;;;;16.98;12.40;;;409.80;2355.20;;;;;;5033457;28;20025;-73
2023/05/06 00:19:13;;;;;;;17.83;11.80;;;409.80;2355.20;;;;;;5027545;28;20021;-73
2023/05/06 00:21:39;;;;;;;20.10;12.27;;;409.70;2355.20;;;;;;5033282;28;20026;-73
2023/05/06 00:24:05;;;;;;;18.35;12.23;;;409.60;2355.20;;;;;;5021784;28;20022;-74
2023/05/06 00:26:30;;;;;;;17.90;11.88;;;409.70;2355.20;;;;;;5026624;28;20032;-73
2023/05/06 00:28:56;;;;;;;16.73;11.68;;;409.80;2355.20;;;;;;5027156;28;20109;-73
2023/05/06 00:31:22;;;;;;;18.17;12.88;;;409.80;2355.20;;;;;;5022293;28;20069;-73
2023/05/06 00:33:48;;;;;;;16.00;11.82;;;409.80;2355.20;;;;;;5028133;28;20056;-73
2023/05/06 00:36:14;;;;;;;17.63;11.90;;;410.00;2355.20;;;;;;5026503;28;20041;-73
2023/05/06 00:38:39;;;;;;;15.35;11.10;;;410.00;2355.20;;;;;;5025856;28;20022;-73
2023/05/06 00:41:05;;;;;;;19.00;12.73;;;410.00;2355.20;;;;;;5014693;28;20037;-79
2023/05/06 00:43:31;;;;;;;21.55;13.40;;;410.00;2355.20;;;;;;5024877;28;20116;-80
2023/05/06 00:45:56;;;;;;;20.35;12.88;;;410.00;2355.20;;;;;;5033372;28;20351;-79
2023/05/06 00:48:22;;;;;;;19.95;13.13;;;409.90;2355.20;;;;;;5033734;28;20048;-73
2023/05/06 00:50:48;;;;;;;18.05;13.30;;;410.00;2355.20;;;;;;5033449;28;20022;-73
2023/05/06 00:53:14;;;;;;;17.15;12.05;;;409.90;2355.20;;;;;;5033150;28;20076;-73
2023/05/06 00:55:40;;;;;;;15.60;11.65;;;409.90;2355.20;;;;;;5033385;28;20036;-73
2023/05/06 00:58:07;;;;;;;22.25;13.65;;;410.00;2355.20;;;;;;5033388;28;20032;-73
2023/05/06 01:00:33;;;;;;;19.35;12.70;;;410.00;2355.20;;;;;;5033067;28;20018;-73
2023/05/06 01:02:59;;;;;;;19.67;12.23;;;409.90;2355.20;;;;;;5033367;28;20057;-73
2023/05/06 01:05:31;;;;;;;16.98;11.80;;;409.80;2355.20;;;;;;5033288;28;20126;-73
2023/05/06 01:08:16;;;;;;;16.13;11.13;;;409.90;2355.20;;;;;;5033336;28;20026;-74
2023/05/06 01:10:48;;;;;;;16.13;12.57;;;409.90;2355.20;;;;;;5033126;28;20021;-73
2023/05/06 01:13:33;;;;;;;21.80;13.30;;;410.00;2355.20;;;;;;5033084;28;20032;-73
2023/05/06 01:16:00;;;;;;;22.00;13.55;;;409.90;2355.20;;;;;;5033222;28;20378;-73
2023/05/06 01:18:28;;;;;;;19.15;13.05;;;384.90;2329.60;;;;;;5032974;28;20026;-73
2023/05/06 01:20:55;;;;;;;17.40;13.10;;;409.60;2355.20;;;;;;5033164;28;20037;-73
2023/05/06 01:23:21;;;;;;;19.65;13.90;;;409.60;2355.20;;;;;;5032823;28;20026;-73
2023/05/06 01:25:46;;;;;;;20.13;13.50;;;409.60;2355.20;;;;;;5033307;28;20397;-73
2023/05/06 01:28:12;;;;;;;23.13;13.60;;;409.60;2355.20;;;;;;5032990;28;20032;-73
2023/05/06 01:30:51;;;;;;;18.52;13.07;;;409.70;2355.20;;;;;;5034884;28;20025;-75
2023/05/06 01:33:38;;;;;;;22.05;13.02;;;409.60;2355.20;;;;;;5037230;28;20537;-73
2023/05/06 01:36:04;;;;;;;;;;;384.70;2329.60;;;;;;5037478;28;20032;-74
2023/05/06 01:38:56;;;;;;;18.17;12.10;;;384.90;2329.60;;;;;;5037232;28;19905;-80
2023/05/06 01:41:23;;;;;;;19.55;14.25;;;384.70;2329.60;;;;;;5037031;28;20148;-74
2023/05/06 01:43:53;;;;;;;23.40;15.02;;;384.50;2329.60;;;;;;5023706;28;20542;-74
2023/05/06 01:46:20;;;;;;;19.15;14.65;;;384.60;2329.60;;;;;;5037097;28;20032;-74
2023/05/06 01:48:49;;;;;;;18.77;14.02;;;384.60;2329.60;;;;;;5036874;28;20039;-80
2023/05/06 01:51:15;;;;;;;19.88;13.93;;;384.70;2329.60;;;;;;5037086;28;20112;-74
2023/05/06 01:53:40;;;;;;;18.10;13.75;;;384.70;2329.60;;;;;;5036474;28;20132;-73
2023/05/06 01:56:06;;;;;;;21.45;13.82;;;384.70;2329.60;;;;;;5036978;28;20084;-74
2023/05/06 01:58:32;;;;;;;19.70;14.70;;;384.60;2329.60;;;;;;5036772;28;20029;-74
2023/05/06 02:00:57;;;;;;;19.25;14.00;;;384.60;2329.60;;;;;;5036436;28;20021;-74
2023/05/06 02:03:23;;;;;;;23.67;15.05;;;384.40;2329.60;;;;;;5036413;28;20076;-74
2023/05/06 02:05:49;;;;;;;21.73;13.80;;;384.40;2329.60;;;;;;5036686;28;20100;-73
2023/05/06 02:08:15;;;;;;;21.30;13.05;;;384.20;2329.60;;;;;;5035423;28;20084;-74
2023/05/06 02:10:41;;;;;;;17.83;12.73;;;384.20;2329.60;;;;;;5036631;28;20025;-73
2023/05/06 02:13:06;;;;;;;20.45;13.85;;;384.30;2329.60;;;;;;5036419;28;20037;-74
2023/05/06 02:15:32;;;;;;;17.63;13.38;;;384.00;2329.60;;;;;;5036379;28;20100;-75
2023/05/06 02:17:58;;;;;;;19.10;12.77;;;359.30;2329.60;;;;;;5036336;28;20086;-74
2023/05/06 02:20:24;;;;;;;18.85;12.65;;;359.20;2329.60;;;;;;5036459;28;20037;-74
2023/05/06 02:22:50;;;;;;;21.60;13.85;;;359.00;2329.60;;;;;;5036077;28;20029;-80
2023/05/06 02:25:16;;;;;;;18.50;13.57;;;359.00;2329.60;;;;;;5036266;28;20065;-74
2023/05/06 02:27:43;;;;;;;18.63;13.77;;;358.90;2329.60;;;;;;5036321;28;20121;-80
2023/05/06 02:30:10;;;;;;;23.15;16.15;;;358.90;2329.60;;;;;;5036173;28;20013;-74
2023/05/06 02:32:36;;;;;;;32.10;15.45;;;358.80;2329.60;;;;;;5036102;28;20109;-80
2023/05/06 02:35:01;;;;;;;18.10;13.70;;;358.70;2329.60;;;;;;5036378;28;20100;-75
2023/05/06 02:37:27;;;;;;;19.60;13.45;;;358.70;2329.60;;;;;;5022911;28;20029;-74
2023/05/06 02:39:53;;;;;;;20.45;15.52;;;358.70;2329.60;;;;;;5036078;28;20047;-75
2023/05/06 02:42:20;;;;;;;20.85;14.20;;;358.70;2329.60;;;;;;5034447;28;20091;-73
2023/05/06 02:44:45;;;;;;;22.52;15.30;;;358.80;2329.60;;;;;;5035953;28;20017;-74
2023/05/06 02:47:11;;;;;;;18.77;13.27;;;358.80;2329.60;;;;;;5035740;28;20037;-72
2023/05/06 02:49:37;;;;;;;19.63;13.45;;;358.80;2329.60;;;;;;5036147;28;20017;-74
2023/05/06 02:52:03;;;;;;;24.30;15.45;;;358.80;2329.60;;;;;;5035538;28;20026;-74
2023/05/06 02:54:29;;;;;;;23.58;14.75;;;358.40;2329.60;;;;;;5035813;28;20517;-73
2023/05/06 02:56:55;;;;;;;21.08;14.68;;;358.60;2329.60;;;;;;5035371;28;20021;-73
2023/05/06 02:59:21;;;;;;;23.65;14.13;;;358.50;2329.60;;;;;;5035690;28;20438;-73
2023/05/06 03:01:47;;;;;;;22.08;14.68;;;358.40;2329.60;;;;;;5035293;28;20112;-73
2023/05/06 03:04:13;;;;;;;22.10;16.50;;;358.40;2329.60;;;;;;5035421;28;20386;-74
2023/05/06 03:06:38;;;;;;;21.20;16.15;;;333.70;2329.60;;;;;;5035282;28;20036;-73
2023/05/06 03:09:04;;;;;;;21.42;15.15;;;358.40;2329.60;;;;;;5035505;28;20092;-73
2023/05/06 03:11:30;;;;;;;20.50;14.75;;;333.70;2329.60;;;;;;5035401;28;20808;-74
2023/05/06 03:13:57;;;;;;;20.02;13.98;;;358.40;2329.60;;;;;;5035373;28;20018;-73
2023/05/06 03:16:23;;;;;;;27.08;16.70;;;333.60;2329.60;;;;;;5035212;28;20029;-73
2023/05/06 03:18:49;;;;;;;22.48;14.75;;;333.50;2329.60;;;;;;5035244;28;20027;-73
2023/05/06 03:21:15;;;;;;;23.55;14.80;;;333.30;2329.60;;;;;;5035033;28;20040;-74
2023/05/06 03:23:40;;;;;;;25.65;16.50;;;333.00;2329.60;;;;;;5035177;28;20022;-74
2023/05/06 03:26:06;;;;;;;34.15;18.13;;;333.20;2329.60;;;;;;5035080;28;20124;-73
2023/05/06 03:28:32;;;;;;;27.88;18.42;;;333.10;2329.60;;;;;;5035175;28;20052;-81
2023/05/06 03:30:58;;;;;;;29.05;19.40;;;333.00;2329.60;;;;;;5034948;28;20077;-73
2023/05/06 03:33:23;;;;;;;30.75;19.52;;;332.90;2329.60;;;;;;5035099;28;20053;-73
2023/05/06 03:35:49;;;;;;;29.02;20.13;;;332.80;2329.60;;;;;;5034845;28;20102;-73
2023/05/06 03:38:15;;;;;;;32.72;19.77;;;332.80;2329.60;;;;;;5035078;28;20056;-73
2023/05/06 03:40:41;;;;;;;34.67;22.80;;;332.80;2329.60;;;;;;5034733;28;20444;-74
2023/05/06 03:43:06;;;;;;;38.70;23.35;;;332.90;2329.60;;;;;;5034748;28;20478;-81
2023/05/06 03:45:32;;;;;;;40.60;24.35;;;332.90;2329.60;;;;;;5034550;28;20033;-74
2023/05/06 03:47:58;;;;;;;40.85;25.48;;;332.90;2329.60;;;;;;5034691;28;20079;-74
2023/05/06 03:50:24;;;;;;;42.30;22.88;;;333.00;2329.60;;;;;;5034331;28;20481;-73
2023/05/06 03:52:50;;;;;;;38.67;23.65;;;333.00;2329.60;;;;;;5033925;28;20375;-73
2023/05/06 03:55:16;;;;;;;36.15;23.67;;;333.00;2329.60;;;;;;5034426;28;20057;-73
2023/05/06 03:57:42;;;;;;;38.67;22.98;;;333.10;2329.60;;;;;;5034629;28;20048;-73
2023/05/06 04:00:08;;;;;;;37.08;22.80;;;333.20;2329.60;;;;;;5034192;28;20076;-73
2023/05/06 04:02:34;;;;;;;39.40;25.45;;;333.20;2329.60;;;;;;5034289;28;20035;-73
2023/05/06 04:05:00;;;;;;;40.33;24.27;;;333.00;2329.60;;;;;;5034063;28;20017;-73
2023/05/06 04:07:26;;;;;;;43.00;25.48;;;333.20;2329.60;;;;;;5034309;28;20048;-73
2023/05/06 04:09:52;;;;;;;43.00;26.20;;;333.30;2329.60;;;;;;5034332;28;20473;-74
2023/05/06 04:12:17;;;;;;;44.90;28.08;;;333.40;2329.60;;;;;;5034248;28;20026;-73
2023/05/06 04:14:43;;;;;;;44.15;27.02;;;333.50;2329.60;;;;;;5034389;28;20025;-74
2023/05/06 04:17:09;;;;;;;44.47;27.42;;;333.70;2329.60;;;;;;5034219;28;20363;-73
2023/05/06 04:19:34;;;;;;;46.17;26.27;;;333.70;2329.60;;;;;;5033815;28;20029;-73
2023/05/06 04:22:01;;;;;;;44.05;27.70;;;358.40;2329.60;;;;;;5033740;28;20072;-73
2023/05/06 04:24:30;;;;;;;52.70;30.50;;;358.40;2329.60;;;;;;5033851;28;20470;-73
2023/05/06 04:26:55;;;;;;;42.17;28.50;;;358.50;2329.60;;;;;;5033996;28;20469;-74
2023/05/06 04:29:21;;;;;;;49.70;28.67;;;358.60;2329.60;;;;;;5033684;28;20021;-73
2023/05/06 04:31:47;;;;;;;51.58;28.67;;;358.80;2329.60;;;;;;5033905;28;20025;-73
2023/05/06 04:34:12;;;;;;;45.97;27.13;;;358.90;2329.60;;;;;;5033745;28;20478;-73
2023/05/06 04:36:38;;;;;;;47.88;26.58;;;359.10;2329.60;;;;;;5033706;28;20025;-74
2023/05/06 04:39:05;;;;;;;44.80;26.30;;;359.20;2329.60;;;;;;5033745;28;20025;-73
2023/05/06 04:41:32;;;;;;;37.88;24.08;;;359.30;2329.60;;;;;;5033671;28;20053;-73
2023/05/06 04:43:57;;;;;;;32.05;21.33;;;384.00;2329.60;;;;;;5033760;28;20021;-73
2023/05/06 04:46:23;;;;;;;29.98;19.02;;;384.20;2329.60;;;;;;5033690;28;20032;-73
2023/05/06 04:48:49;;;;;;;28.83;20.55;;;384.30;2329.60;;;;;;5033720;28;20021;-73
2023/05/06 04:51:15;;;;;;;28.98;20.77;;;384.40;2329.60;;;;;;5033776;28;20108;-73
2023/05/06 04:53:40;;;;;;;29.33;18.88;;;384.40;2329.60;;;;;;5033448;28;20042;-81
2023/05/06 04:56:07;;;;;;;23.88;18.33;;;384.50;2329.60;;;;;;5033589;28;20099;-73
2023/05/06 04:58:33;;;;;;;31.45;18.92;;;384.60;2329.60;;;;;;5033416;28;20033;-74
2023/05/06 05:01:03;;;;;;;32.95;21.35;;;384.70;2329.60;;;;;;5033199;28;20017;-73
2023/05/06 05:03:29;;;;;;;32.55;20.77;;;384.70;2329.60;;;;;;5033384;28;20024;-73
2023/05/06 05:05:55;;;;;;;38.28;20.38;;;384.70;2329.60;;;;;;5032693;28;20017;-74
2023/05/06 05:08:20;;;;;;;31.55;20.98;;;384.70;2329.60;;;;;;5033281;28;20049;-73
2023/05/06 05:10:46;;;;;;;51.22;30.25;;;384.90;2329.60;;;;;;5033588;28;20045;-73
2023/05/06 05:13:12;;;;;;;34.83;24.83;;;409.60;2355.20;;;;;;5033233;28;20104;-73
2023/05/06 05:15:38;;;;;;;29.17;20.50;;;409.60;2355.20;;;;;;5033202;28;20017;-75
2023/05/06 05:18:04;;;;;;;26.92;18.58;;;409.60;2355.20;;;;;;5033033;28;20021;-74
2023/05/06 05:20:30;;;;;;;27.52;18.70;;;409.70;2355.20;;;;;;5027527;28;20053;-75
2023/05/06 05:22:56;;;;;;;29.40;17.90;;;409.70;2355.20;;;;;;5029452;28;20049;-78
2023/05/06 05:25:22;;;;;;;31.85;19.70;;;409.90;2355.20;;;;;;5023776;28;20030;-74
2023/05/06 05:27:48;;;;;;;27.08;17.88;;;409.80;2355.20;;;;;;5028794;28;20025;-74
2023/05/06 05:30:13;;;;;;;26.70;19.40;;;409.90;2355.20;;;;;;5029629;28;20021;-74
2023/05/06 05:32:39;;;;;;;27.10;19.05;;;410.00;2355.20;;;;;;5021596;28;20059;-75
2023/05/06 05:35:05;;;;;;;23.10;17.75;;;410.00;2355.20;;;;;;5028103;28;20061;-77
2023/05/06 05:37:31;;;;;;;22.20;17.63;;;410.20;2355.20;;;;;;5030018;28;20030;-74
2023/05/06 05:39:57;;;;;;;23.45;17.85;;;410.20;2355.20;;;;;;5032435;28;20018;-74
2023/05/06 05:42:23;;;;;;;28.20;17.38;;;410.30;2355.20;;;;;;5022099;28;20030;-75
2023/05/06 05:44:48;;;;;;;30.27;17.67;;;410.50;2355.20;;;;;;5028224;28;20501;-73
2023/05/06 05:47:14;;;;;;;25.13;17.77;;;435.20;2355.20;;;;;;5029997;28;20022;-73
2023/05/06 05:49:40;;;;;;;23.52;17.52;;;435.40;2355.20;;;;;;5030346;28;20028;-74
2023/05/06 05:52:06;;;;;;;26.95;17.23;;;435.40;2355.20;;;;;;5032005;28;20017;-73
2023/05/06 05:54:32;;;;;;;21.85;15.60;;;435.50;2355.20;;;;;;5026770;28;20065;-73
2023/05/06 05:56:58;;;;;;;27.13;17.75;;;435.60;2355.20;;;;;;5027917;28;20017;-73
2023/05/06 05:59:24;;;;;;;25.52;16.30;;;435.70;2355.20;;;;;;5022090;28;20030;-75
2023/05/06 06:01:50;;;;;;;23.90;16.40;;;435.70;2355.20;;;;;;5020833;28;20033;-73
2023/05/06 06:04:15;;;;;;;23.92;14.88;;;435.80;2355.20;;;;;;5031973;28;20029;-73
2023/05/06 06:06:41;;;;;;;24.15;16.95;;;435.90;2355.20;;;;;;5018171;28;20022;-75
2023/05/06 06:09:08;;;;;;;21.75;16.50;;;435.90;2355.20;;;;;;5027298;28;20026;-74
2023/05/06 06:11:34;;;;;;;23.20;16.42;;;436.00;2355.20;;;;;;5027689;28;20532;-74
2023/05/06 06:14:00;;;;;;;24.27;16.85;;;460.80;2380.80;;;;;;5028409;28;20033;-73
2023/05/06 06:16:26;;;;;;;24.90;17.45;;;461.00;2380.80;;;;;;5032947;28;20022;-73
2023/05/06 06:18:52;;;;;;;20.73;15.63;;;461.00;2380.80;;;;;;5035536;28;20036;-74
2023/05/06 06:21:18;;;;;;;22.95;16.25;;;461.20;2380.80;;;;;;5024534;28;20041;-75
2023/05/06 06:23:46;;;;;;;22.25;16.73;;;461.20;2380.80;;;;;;5033507;28;20029;-74
2023/05/06 06:26:11;;;;;;;21.58;16.50;;;461.30;2380.80;;;;;;5028521;28;20030;-75
2023/05/06 06:28:38;;;;;;;25.60;18.35;;;461.50;2380.80;;;;;;5035144;28;20021;-75
2023/05/06 06:31:03;;;;;;;20.02;14.73;;;461.60;2380.80;;;;;;5030989;28;20127;-76
2023/05/06 06:33:29;;;;;;;24.55;17.02;;;461.70;2380.80;;;;;;5030695;28;20473;-74
2023/05/06 06:35:55;;;;;;;24.08;16.85;;;486.40;2380.80;;;;;;5027053;28;20029;-74
2023/05/06 06:38:21;;;;;;;23.52;16.83;;;486.50;2380.80;;;;;;5030534;28;20026;-73
2023/05/06 06:40:47;;;;;;;24.67;16.65;;;486.70;2380.80;;;;;;5030498;28;20041;-74
2023/05/06 06:43:12;;;;;;;21.83;15.40;;;486.80;2380.80;;;;;;5029121;28;20034;-72
2023/05/06 06:45:38;;;;;;;21.80;15.30;;;486.80;2380.80;;;;;;5028241;28;20025;-72
2023/05/06 06:48:04;;;;;;;20.55;15.82;;;486.90;2380.80;;;;;;5023997;28;20024;-72
2023/05/06 06:50:29;;;;;;;21.50;15.93;;;487.10;2380.80;;;;;;5029353;28;20017;-72
2023/05/06 06:52:55;;;;;;;19.50;14.60;;;487.10;2380.80;;;;;;5029007;28;20068;-74
2023/05/06 06:55:21;;;;;;;21.95;14.55;;;487.30;2380.80;;;;;;5029192;28;20022;-72
2023/05/06 06:57:47;;;;;;;19.25;14.63;;;512.00;2380.80;;;;;;5026055;28;20470;-71
2023/05/06 07:00:13;;;;;;;21.13;14.75;;;512.10;2380.80;;;;;;5024454;28;20030;-73
2023/05/06 07:02:38;;;;;;;28.20;15.32;;;512.30;2380.80;;;;;;5033374;28;20112;-72
2023/05/06 07:05:04;;;;;;;20.40;14.18;;;512.40;2380.80;;;;;;5028557;28;20480;-73
2023/05/06 07:07:30;;;;;;;23.85;14.80;;;512.40;2380.80;;;;;;5026325;28;20026;-73
2023/05/06 07:09:57;;;;;;;20.38;14.55;;;512.50;2380.80;;;;;;5029946;28;20501;-73
2023/05/06 07:12:23;;;;;;;22.75;14.70;;;512.60;2380.80;;;;;;5025754;28;20044;-72
2023/05/06 07:14:49;;;;;;;21.65;14.35;;;512.70;2380.80;;;;;;5023648;28;20022;-72
2023/05/06 07:17:15;;;;;;;20.27;14.13;;;512.90;2380.80;;;;;;5030196;28;20026;-72
2023/05/06 07:19:40;;;;;;;18.65;13.25;;;537.60;2406.40;;;;;;5034283;28;20021;-72
2023/05/06 07:22:06;;;;;;;17.67;14.73;;;537.80;2406.40;;;;;;5025373;28;20034;-73
2023/05/06 07:24:32;;;;;;;21.98;13.80;;;537.80;2406.40;;;;;;5029460;28;20105;-72
2023/05/06 07:26:59;;;;;;;19.08;14.73;;;537.90;2406.40;;;;;;5033694;28;20022;-73
2023/05/06 07:29:25;;;;;;;18.58;13.65;;;538.00;2406.40;;;;;;5024809;28;20125;-71
2023/05/06 07:31:51;;;;;;;18.10;14.27;;;538.10;2406.40;;;;;;5033483;28;20487;-72
2023/05/06 07:34:18;;;;;;;20.50;15.32;;;538.20;2406.40;;;;;;5025459;28;20026;-72
2023/05/06 07:36:44;;;;;;;21.58;14.50;;;538.40;2406.40;;;;;;5029854;28;20129;-73
2023/05/06 07:39:11;;;;;;;16.08;13.52;;;538.40;2406.40;;;;;;5029600;28;20440;-72
2023/05/06 07:41:36;;;;;;;16.23;12.45;;;563.20;2432.00;;;;;;5030577;28;20482;-73
2023/05/06 07:44:02;;;;;;;17.17;13.07;;;563.30;2432.00;;;;;;5025442;28;20026;-72
2023/05/06 07:46:29;;;;;;;15.43;11.32;;;;;;;;;;5031893;28;20373;-73
2023/05/06 07:48:54;;;;;;;16.63;11.15;;;563.50;2432.00;;;;;;5024934;28;20489;-72
2023/05/06 07:51:20;;;;;;;14.35;10.68;;;563.60;2432.00;;;;;;5028114;28;20029;-72
2023/05/06 07:53:46;;;;;;;18.48;10.07;;;563.80;2432.00;;;;;;5029015;28;20535;-73
2023/05/06 07:56:12;;;;;;;15.80;10.38;;;563.70;2432.00;;;;;;5022967;28;20038;-73
2023/05/06 07:58:38;;;;;;;17.85;11.25;;;563.80;2432.00;;;;;;5033736;28;20092;-72
2023/05/06 08:01:05;;;;;;;24.23;9.18;;;563.80;2432.00;;;;;;5027027;28;20176;-72
2023/05/06 08:03:31;;;;;;;15.18;9.10;;;563.80;2406.40;;;;;;5026515;28;20037;-75
2023/05/06 08:05:57;;;;;;;11.52;8.63;;;563.90;2380.80;;;;;;5030973;28;20024;-73
2023/05/06 08:08:26;;;;;;;13.55;8.43;;;564.00;2150.40;;;;;;5024415;28;20026;-74
2023/05/06 08:10:57;;;;;;;10.52;8.27;;;564.00;2227.20;;;;;;5029185;28;20466;-76
2023/05/06 08:13:23;;;;;;;12.65;8.35;;;588.80;2432.00;;;;;;5023430;28;20484;-72
2023/05/06 08:15:49;;;;;;;8.90;7.18;;;588.80;2252.80;;;;;;5024782;28;20537;-71
2023/05/06 08:18:14;;;;;;;11.93;7.47;;;588.80;2150.40;;;;;;5021033;28;20104;-72
2023/05/06 08:20:40;;;;;;;11.70;8.18;;;588.90;2124.80;;;;;;5025570;28;20036;-72
2023/05/06 08:23:06;;;;;;;14.82;7.68;;;588.90;2227.20;;;;;;5029315;28;20064;-73
2023/05/06 08:25:31;;;;;;;11.10;7.45;;;588.90;2201.60;;;;;;5027674;28;20051;-72
2023/05/06 08:27:57;;;;;;;10.90;7.57;;;589.00;2201.60;;;;;;5028081;28;20026;-73
2023/05/06 08:30:23;;;;;;;9.80;6.95;;;589.00;2150.40;;;;;;5027340;28;20025;-73
2023/05/06 08:32:48;;;;;;;15.02;6.70;;;589.00;2150.40;;;;;;5028607;28;20032;-72
2023/05/06 08:35:14;;;;;;;11.50;7.13;;;589.00;2022.40;;;;;;5024275;28;20417;-73
2023/05/06 08:37:40;;;;;;;10.13;6.90;;;589.00;2150.40;;;;;;5027713;28;20125;-73
2023/05/06 08:40:20;;;;;;;9.73;6.75;;;589.10;2099.20;;;;;;5023759;28;20018;-72
2023/05/06 08:42:46;;;;;;;13.38;7.75;;;589.10;2099.20;;;;;;5025568;28;20036;-72
2023/05/06 08:45:13;;;;;;;10.57;6.97;;;589.20;2201.60;;;;;;5024424;28;20105;-73
2023/05/06 08:47:40;;;;;;;10.32;7.05;;;589.30;1996.80;;;;;;5026014;28;20022;-72
2023/05/06 08:50:07;;;;;;;11.95;7.10;;;589.10;1894.40;;;;;;5030948;28;20428;-72
2023/05/06 08:52:34;;;;;;;15.23;7.18;;;589.20;1996.80;;;;;;5024671;28;20053;-72
2023/05/06 08:55:03;;;;;;;8.60;6.88;;;589.30;2073.60;;;;;;5025778;28;20037;-74
2023/05/06 08:57:30;;;;;;;8.57;6.78;;;589.40;2022.40;;;;;;5026081;28;20052;-72
2023/05/06 08:59:57;;;;;;;14.13;7.05;;;589.40;2099.20;;;;;;5030500;28;20385;-72
2023/05/06 09:02:23;;;;;;;13.05;5.85;;;589.60;1971.20;;;;;;5031737;28;20489;-72
2023/05/06 09:04:51;;;;;;;12.85;7.43;;;589.60;1920.00;;;;;;5025780;28;20100;-72
2023/05/06 09:07:17;;;;;;;7.35;5.65;;;589.70;1894.40;;;;;;5023126;28;20064;-74
2023/05/06 09:09:43;;;;;;;10.25;6.55;;;589.70;1817.60;;;;;;5027128;28;20024;-74
2023/05/06 09:12:12;;;;;;;7.60;6.47;;;614.40;1868.80;;;;;;5032349;28;20021;-72
2023/05/06 09:14:38;;;;;;;10.57;5.45;;;614.50;1843.20;;;;;;5032489;28;20028;-72
2023/05/06 09:17:04;;;;;;;6.40;5.20;;;614.50;1689.60;;;;;;5027693;28;20025;-72
2023/05/06 09:19:30;;;;;;;6.78;4.47;;;614.60;1689.60;;;;;;5032502;28;20508;-73
2023/05/06 09:21:56;;;;;;;7.47;4.57;;;614.60;1612.80;;;;;;5029874;28;20041;-73
2023/05/06 09:24:23;;;;;;;6.10;3.83;;;614.60;1587.20;;;;;;5031675;28;20022;-72
2023/05/06 09:26:50;;;;;;;11.60;5.22;;;614.60;1536.00;;;;;;5026522;28;20351;-74
2023/05/06 09:29:16;;;;;;;8.77;4.55;;;614.80;1587.20;;;;;;5029493;28;20021;-78
2023/05/06 09:31:46;;;;;;;6.90;4.72;;;614.80;1612.80;;;;;;5021469;28;20525;-71
2023/05/06 09:34:13;;;;;;;9.82;5.28;;;615.00;1612.80;;;;;;5028091;28;20022;-73
2023/05/06 09:36:39;;;;;;;8.20;4.65;;;615.10;1536.00;;;;;;5027162;28;20044;-71
2023/05/06 09:39:05;;;;;;;7.32;5.35;;;615.20;1510.40;;;;;;5020364;28;20474;-73
2023/05/06 09:41:32;;;;;;;6.38;4.18;;;615.30;1510.40;;;;;;5029071;28;20033;-71
2023/05/06 09:43:58;;;;;;;6.25;4.55;;;615.30;1484.80;;;;;;5031499;28;20044;-72
2023/05/06 09:46:26;;;;;;;5.68;4.78;;;615.20;1536.00;;;;;;5032088;28;20078;-75
2023/05/06 09:48:54;;;;;;;8.65;5.28;;;615.30;1510.40;;;;;;5024800;28;20026;-73
2023/05/06 09:51:20;;;;;;;9.05;5.35;;;640.10;1561.60;;;;;;5024817;28;20029;-72
2023/05/06 09:53:47;;;;;;;12.65;5.05;;;640.40;1536.00;;;;;;5029068;28;20045;-73
2023/05/06 09:56:14;;;;;;;10.70;4.93;;;640.50;1484.80;;;;;;5026497;28;20022;-72
2023/05/06 09:58:40;;;;;;;6.38;4.78;;;640.70;1433.60;;;;;;5034836;28;20470;-72
2023/05/06 10:01:07;;;;;;;6.30;4.72;;;640.70;1459.20;;;;;;5034780;28;20038;-72
2023/05/06 10:03:34;;;;;;;7.78;5.50;;;640.90;1459.20;;;;;;5027151;28;20026;-72
2023/05/06 10:06:02;;;;;;;6.95;4.95;;;665.60;1459.20;;;;;;5044972;28;20052;-74
2023/05/06 10:08:28;;;;;;;8.20;4.75;;;665.60;1484.80;;;;;;5035730;28;20067;-73
2023/05/06 10:10:54;;;;;;;9.15;4.30;;;665.90;1433.60;;;;;;5029961;28;20104;-74
2023/05/06 10:13:22;;;;;;;6.13;3.90;;;666.00;1408.00;;;;;;5032041;28;20028;-74
2023/05/06 10:15:49;;;;;;;7.65;5.05;;;665.90;1408.00;;;;;;5031300;28;20436;-74
2023/05/06 10:18:16;;;;;;;10.20;4.57;;;640.50;1484.80;;;;;;5030193;28;20030;-74
2023/05/06 10:20:43;;;;;;;8.65;5.03;;;640.60;1510.40;;;;;;5032734;28;20037;-73
2023/05/06 10:23:15;;;;;;;10.18;4.97;;;665.60;1510.40;;;;;;5026704;28;20084;-74
2023/05/06 10:25:43;;;;;;;6.70;4.93;;;640.30;1510.40;;;;;;5029919;28;20482;-73
2023/05/06 10:28:10;;;;;;;6.53;4.93;;;640.20;1536.00;;;;;;5028449;28;20497;-74
2023/05/06 10:30:38;;;;;;;6.18;4.90;;;640.90;1459.20;;;;;;5031300;28;20092;-74
2023/05/06 10:33:09;;;;;;;6.82;4.72;;;640.20;1459.20;;;;;;5023668;28;20025;-74
2023/05/06 10:35:45;;;;;;;6.97;3.92;;;615.30;1510.40;;;;;;5030663;28;20190;-74
2023/05/06 10:38:25;;;;;;;6.78;4.35;;;640.60;1484.80;;;;;;5030820;28;20082;-74
2023/05/06 10:40:52;;;;;;;5.22;4.15;;;640.90;1408.00;;;;;;5022504;28;20025;-73
2023/05/06 10:43:25;;;;;;;6.50;4.57;;;666.00;1433.60;;;;;;5032859;28;20386;-74
2023/05/06 10:46:07;;;;;;;8.48;4.60;;;666.20;1459.20;;;;;;5024696;28;20030;-75
2023/05/06 10:48:35;;;;;;;5.95;4.78;;;666.40;1408.00;;;;;;5032291;28;20067;-74
2023/05/06 10:51:15;;;;;;;9.73;4.60;;;691.20;1382.40;;;;;;5027476;28;20029;-72
2023/05/06 10:54:18;;;;;;;9.85;4.55;;;691.60;1305.60;;;;;;5023660;28;20096;-73
2023/05/06 10:56:49;;;;;;;6.53;4.53;;;691.60;1356.80;;;;;;5028671;28;20095;-73
2023/05/06 10:59:25;;;;;;;5.78;3.97;;;691.60;1305.60;;;;;;5028739;28;20025;-73
2023/05/06 11:02:09;;;;;;;6.68;4.35;;;691.30;1356.80;;;;;;5034600;28;20064;-73
2023/05/06 11:04:36;;;;;;;7.55;4.35;;;691.70;1356.80;;;;;;5027386;28;20049;-77
2023/05/06 11:07:14;;;;;;;5.43;4.10;;;691.70;1331.20;;;;;;5023678;28;20026;-73
2023/05/06 11:09:55;;;;;;;5.32;3.67;;;691.80;1280.00;;;;;;5027811;28;20025;-73
2023/05/06 11:12:21;;;;;;;7.20;4.68;;;691.90;1254.40;;;;;;5021134;28;20430;-74
2023/05/06 11:14:47;;;;;;;6.50;4.55;;;691.80;1305.60;;;;;;5030272;28;20096;-73
2023/05/06 11:17:34;;;;;;;7.10;4.80;;;691.90;1305.60;;;;;;5025801;28;20060;-74
2023/05/06 11:20:21;;;;;;;10.85;4.90;;;692.00;1280.00;;;;;;5026063;28;20021;-74
2023/05/06 11:22:47;;;;;;;7.10;4.25;;;716.80;1331.20;;;;;;5019427;28;20037;-73
2023/05/06 11:25:13;;;;;;;12.75;4.20;;;691.70;1331.20;;;;;;5031592;28;20026;-73
2023/05/06 11:27:39;;;;;;;4.90;3.97;;;692.10;1331.20;;;;;;5034248;28;20033;-73
2023/05/06 11:30:14;;;;;;;7.20;4.35;;;692.10;1280.00;;;;;;5029968;28;20022;-75
2023/05/06 11:32:42;;;;;;;6.63;4.32;;;692.10;1280.00;;;;;;5028027;28;20387;-73
2023/05/06 11:35:07;;;;;;;7.32;4.10;;;716.90;1331.20;;;;;;5023984;28;20022;-74
2023/05/06 11:37:34;;;;;;;7.07;4.30;;;716.90;1280.00;;;;;;5031885;28;20483;-74
2023/05/06 11:40:00;;;;;;;6.97;4.03;;;692.10;1254.40;;;;;;5029186;28;20032;-74
2023/05/06 11:42:27;;;;;;;5.68;4.13;;;716.90;1254.40;;;;;;5026738;28;20432;-74
2023/05/06 11:44:54;;;;;;;5.40;4.05;;;716.80;1280.00;;;;;;5025364;28;20029;-73
2023/05/06 11:47:23;;;;;;;5.68;4.32;;;716.90;1254.40;;;;;;5029775;28;20033;-73
2023/05/06 11:49:55;;;;;;;9.80;3.90;;;717.10;1254.40;;;;;;5029730;28;20481;-73
2023/05/06 11:52:20;;;;;;;9.80;4.13;;;717.30;1228.80;;;;;;5024905;28;20072;-74
2023/05/06 11:54:46;;;;;;;6.20;4.00;;;717.50;1228.80;;;;;;5037405;28;20049;-73
2023/05/06 11:57:12;;;;;;;4.97;4.10;;;717.10;1203.20;;;;;;5031923;28;20512;-74
2023/05/06 11:59:39;;;;;;;5.13;3.92;;;717.30;1228.80;;;;;;5027997;28;20104;-73
2023/05/06 12:02:11;;;;;;;7.25;3.88;;;717.30;1203.20;;;;;;5033445;28;20052;-73
2023/05/06 12:04:44;;;;;;;4.90;3.35;;;717.20;1203.20;;;;;;5026903;28;20027;-75
2023/05/06 12:07:12;;;;;;;5.22;3.88;;;691.70;1203.20;;;;;;5029240;28;20029;-73